sensor_id;sensor_type;location;lat;lon;timestamp;P1;durP1;ratioP1;P2;durP2;ratioP2
75096;SDS011;63684;47.964;11.186;2023-04-03T00:01:19;13.70;;;8.53;;
75096;SDS011;63684;47.964;11.186;2023-04-03T00:03:45;12.90;;;9.47;;
75096;SDS011;63684;47.964;11.186;2023-04-03T00:06:11;11.90;;;8.87;;
75096;SDS011;63684;47.964;11.186;2023-04-03T00:08:37;13.57;;;8.80;;
75096;SDS011;63684;47.964;11.186;2023-04-03T00:11:03;9.77;;;8.63;;
75096;SDS011;63684;47.964;11.186;2023-04-03T00:13:29;10.57;;;8.13;;
75096;SDS011;63684;47.964;11.186;2023-04-03T00:15:55;10.67;;;8.47;;
75096;SDS011;63684;47.964;11.186;2023-04-03T00:18:21;10.43;;;9.33;;
75096;SDS011;63684;47.964;11.186;2023-04-03T00:20:47;11.27;;;8.37;;
75096;SDS011;63684;47.964;11.186;2023-04-03T00:23:12;12.17;;;9.40;;
75096;SDS011;63684;47.964;11.186;2023-04-03T00:25:38;12.27;;;9.60;;
75096;SDS011;63684;47.964;11.186;2023-04-03T00:28:03;10.90;;;8.57;;
75096;SDS011;63684;47.964;11.186;2023-04-03T00:30:29;10.23;;;8.97;;
75096;SDS011;63684;47.964;11.186;2023-04-03T00:32:55;11.93;;;9.43;;
75096;SDS011;63684;47.964;11.186;2023-04-03T00:35:21;11.23;;;9.30;;
75096;SDS011;63684;47.964;11.186;2023-04-03T00:37:50;11.07;;;8.50;;
75096;SDS011;63684;47.964;11.186;2023-04-03T00:40:16;10.87;;;9.30;;
75096;SDS011;63684;47.964;11.186;2023-04-03T00:42:43;8.80;;;7.90;;
75096;SDS011;63684;47.964;11.186;2023-04-03T00:47:40;11.20;;;9.10;;
75096;SDS011;63684;47.964;11.186;2023-04-03T00:50:06;11.10;;;8.80;;
75096;SDS011;63684;47.964;11.186;2023-04-03T00:52:32;8.30;;;7.43;;
75096;SDS011;63684;47.964;11.186;2023-04-03T00:54:59;11.70;;;8.20;;
75096;SDS011;63684;47.964;11.186;2023-04-03T00:57:28;9.23;;;7.83;;
75096;SDS011;63684;47.964;11.186;2023-04-03T00:59:57;8.93;;;7.47;;
75096;SDS011;63684;47.964;11.186;2023-04-03T01:02:27;10.60;;;7.77;;
75096;SDS011;63684;47.964;11.186;2023-04-03T01:04:52;8.90;;;8.00;;
75096;SDS011;63684;47.964;11.186;2023-04-03T01:07:28;13.10;;;8.33;;
75096;SDS011;63684;47.964;11.186;2023-04-03T01:09:56;8.50;;;7.60;;
75096;SDS011;63684;47.964;11.186;2023-04-03T01:12:27;10.87;;;7.97;;
75096;SDS011;63684;47.964;11.186;2023-04-03T01:15:01;9.30;;;8.27;;
75096;SDS011;63684;47.964;11.186;2023-04-03T01:22:43;9.37;;;6.97;;
75096;SDS011;63684;47.964;11.186;2023-04-03T01:25:34;11.03;;;7.27;;
75096;SDS011;63684;47.964;11.186;2023-04-03T01:28:12;9.90;;;7.73;;
75096;SDS011;63684;47.964;11.186;2023-04-03T01:33:33;9.43;;;7.23;;
75096;SDS011;63684;47.964;11.186;2023-04-03T01:35:59;8.90;;;7.50;;
75096;SDS011;63684;47.964;11.186;2023-04-03T01:38:26;10.83;;;7.57;;
75096;SDS011;63684;47.964;11.186;2023-04-03T01:40:51;11.10;;;7.80;;
75096;SDS011;63684;47.964;11.186;2023-04-03T01:43:17;13.10;;;8.43;;
75096;SDS011;63684;47.964;11.186;2023-04-03T01:45:42;9.63;;;7.83;;
75096;SDS011;63684;47.964;11.186;2023-04-03T01:48:08;10.33;;;7.83;;
75096;SDS011;63684;47.964;11.186;2023-04-03T01:50:33;9.27;;;7.93;;
75096;SDS011;63684;47.964;11.186;2023-04-03T01:52:59;8.10;;;7.30;;
75096;SDS011;63684;47.964;11.186;2023-04-03T01:55:25;9.33;;;7.80;;
75096;SDS011;63684;47.964;11.186;2023-04-03T01:57:50;8.80;;;7.90;;
75096;SDS011;63684;47.964;11.186;2023-04-03T02:00:16;10.67;;;7.63;;
75096;SDS011;63684;47.964;11.186;2023-04-03T02:02:42;8.20;;;7.17;;
75096;SDS011;63684;47.964;11.186;2023-04-03T02:05:07;9.33;;;8.07;;
75096;SDS011;63684;47.964;11.186;2023-04-03T02:07:33;12.70;;;8.40;;
75096;SDS011;63684;47.964;11.186;2023-04-03T02:09:58;8.40;;;6.87;;
75096;SDS011;63684;47.964;11.186;2023-04-03T02:12:24;8.20;;;7.27;;
75096;SDS011;63684;47.964;11.186;2023-04-03T02:14:50;8.30;;;7.50;;
75096;SDS011;63684;47.964;11.186;2023-04-03T02:17:15;8.83;;;7.70;;
75096;SDS011;63684;47.964;11.186;2023-04-03T02:19:41;8.47;;;6.33;;
75096;SDS011;63684;47.964;11.186;2023-04-03T02:22:06;8.07;;;6.97;;
75096;SDS011;63684;47.964;11.186;2023-04-03T02:24:32;8.17;;;7.07;;
75096;SDS011;63684;47.964;11.186;2023-04-03T02:26:58;7.50;;;6.60;;
75096;SDS011;63684;47.964;11.186;2023-04-03T02:29:24;11.47;;;7.90;;
75096;SDS011;63684;47.964;11.186;2023-04-03T02:31:50;8.80;;;7.53;;
75096;SDS011;63684;47.964;11.186;2023-04-03T02:34:16;7.47;;;6.67;;
75096;SDS011;63684;47.964;11.186;2023-04-03T02:36:43;11.27;;;8.67;;
75096;SDS011;63684;47.964;11.186;2023-04-03T02:39:10;9.13;;;6.70;;
75096;SDS011;63684;47.964;11.186;2023-04-03T02:41:36;8.97;;;7.37;;
75096;SDS011;63684;47.964;11.186;2023-04-03T02:44:06;14.20;;;7.70;;
75096;SDS011;63684;47.964;11.186;2023-04-03T02:46:32;8.10;;;6.67;;
75096;SDS011;63684;47.964;11.186;2023-04-03T02:48:58;7.63;;;6.73;;
75096;SDS011;63684;47.964;11.186;2023-04-03T02:51:23;8.23;;;7.07;;
75096;SDS011;63684;47.964;11.186;2023-04-03T02:53:51;7.67;;;6.87;;
75096;SDS011;63684;47.964;11.186;2023-04-03T02:56:20;9.23;;;7.07;;
75096;SDS011;63684;47.964;11.186;2023-04-03T02:58:46;7.50;;;6.80;;
75096;SDS011;63684;47.964;11.186;2023-04-03T03:01:12;8.37;;;7.30;;
75096;SDS011;63684;47.964;11.186;2023-04-03T03:03:37;7.97;;;7.17;;
75096;SDS011;63684;47.964;11.186;2023-04-03T03:06:07;7.90;;;7.10;;
75096;SDS011;63684;47.964;11.186;2023-04-03T03:08:34;7.37;;;6.33;;
75096;SDS011;63684;47.964;11.186;2023-04-03T03:11:00;6.10;;;5.50;;
75096;SDS011;63684;47.964;11.186;2023-04-03T03:13:26;6.97;;;6.33;;
75096;SDS011;63684;47.964;11.186;2023-04-03T03:15:52;6.07;;;5.37;;
75096;SDS011;63684;47.964;11.186;2023-04-03T03:18:17;7.27;;;5.60;;
75096;SDS011;63684;47.964;11.186;2023-04-03T03:20:43;6.57;;;5.40;;
75096;SDS011;63684;47.964;11.186;2023-04-03T03:23:08;5.37;;;4.87;;
75096;SDS011;63684;47.964;11.186;2023-04-03T03:25:37;6.30;;;5.47;;
75096;SDS011;63684;47.964;11.186;2023-04-03T03:28:03;6.03;;;5.47;;
75096;SDS011;63684;47.964;11.186;2023-04-03T03:30:29;7.93;;;5.80;;
75096;SDS011;63684;47.964;11.186;2023-04-03T03:32:54;7.73;;;6.37;;
75096;SDS011;63684;47.964;11.186;2023-04-03T03:35:20;6.60;;;5.77;;
75096;SDS011;63684;47.964;11.186;2023-04-03T03:37:47;8.70;;;7.00;;
75096;SDS011;63684;47.964;11.186;2023-04-03T03:40:13;7.20;;;6.50;;
75096;SDS011;63684;47.964;11.186;2023-04-03T03:42:38;9.27;;;7.10;;
75096;SDS011;63684;47.964;11.186;2023-04-03T03:45:05;8.77;;;7.60;;
75096;SDS011;63684;47.964;11.186;2023-04-03T03:47:30;8.97;;;8.07;;
75096;SDS011;63684;47.964;11.186;2023-04-03T03:49:56;8.00;;;7.20;;
75096;SDS011;63684;47.964;11.186;2023-04-03T03:52:21;8.17;;;7.13;;
75096;SDS011;63684;47.964;11.186;2023-04-03T03:54:47;9.47;;;6.93;;
75096;SDS011;63684;47.964;11.186;2023-04-03T03:57:14;9.77;;;7.90;;
75096;SDS011;63684;47.964;11.186;2023-04-03T03:59:40;10.13;;;7.80;;
75096;SDS011;63684;47.964;11.186;2023-04-03T04:02:07;15.83;;;8.00;;
75096;SDS011;63684;47.964;11.186;2023-04-03T04:04:32;8.83;;;7.47;;
75096;SDS011;63684;47.964;11.186;2023-04-03T04:06:58;11.30;;;8.83;;
75096;SDS011;63684;47.964;11.186;2023-04-03T04:09:26;9.30;;;8.37;;
75096;SDS011;63684;47.964;11.186;2023-04-03T04:11:52;10.77;;;8.73;;
75096;SDS011;63684;47.964;11.186;2023-04-03T04:14:19;10.97;;;8.70;;
75096;SDS011;63684;47.964;11.186;2023-04-03T04:16:46;10.13;;;7.87;;
75096;SDS011;63684;47.964;11.186;2023-04-03T04:19:17;13.60;;;9.20;;
75096;SDS011;63684;47.964;11.186;2023-04-03T04:21:44;14.33;;;9.10;;
75096;SDS011;63684;47.964;11.186;2023-04-03T04:24:09;9.97;;;8.17;;
75096;SDS011;63684;47.964;11.186;2023-04-03T04:26:35;11.27;;;8.77;;
75096;SDS011;63684;47.964;11.186;2023-04-03T04:29:01;9.80;;;8.80;;
75096;SDS011;63684;47.964;11.186;2023-04-03T04:31:30;9.87;;;8.27;;
75096;SDS011;63684;47.964;11.186;2023-04-03T04:33:55;9.50;;;8.27;;
75096;SDS011;63684;47.964;11.186;2023-04-03T04:36:22;8.77;;;7.87;;
75096;SDS011;63684;47.964;11.186;2023-04-03T04:38:48;10.67;;;7.83;;
75096;SDS011;63684;47.964;11.186;2023-04-03T04:41:14;9.77;;;7.43;;
75096;SDS011;63684;47.964;11.186;2023-04-03T04:43:40;9.00;;;7.97;;
75096;SDS011;63684;47.964;11.186;2023-04-03T04:46:07;11.47;;;8.00;;
75096;SDS011;63684;47.964;11.186;2023-04-03T04:48:38;8.80;;;7.47;;
75096;SDS011;63684;47.964;11.186;2023-04-03T04:51:05;11.03;;;7.33;;
75096;SDS011;63684;47.964;11.186;2023-04-03T04:53:30;10.83;;;7.63;;
75096;SDS011;63684;47.964;11.186;2023-04-03T04:55:56;9.80;;;8.10;;
75096;SDS011;63684;47.964;11.186;2023-04-03T04:58:22;9.50;;;7.77;;
75096;SDS011;63684;47.964;11.186;2023-04-03T05:00:47;10.80;;;7.83;;
75096;SDS011;63684;47.964;11.186;2023-04-03T05:03:13;9.17;;;7.97;;
75096;SDS011;63684;47.964;11.186;2023-04-03T05:05:39;9.70;;;8.70;;
75096;SDS011;63684;47.964;11.186;2023-04-03T05:08:05;8.80;;;7.87;;
75096;SDS011;63684;47.964;11.186;2023-04-03T05:10:31;10.93;;;7.70;;
75096;SDS011;63684;47.964;11.186;2023-04-03T05:12:57;9.00;;;7.57;;
75096;SDS011;63684;47.964;11.186;2023-04-03T05:15:22;10.67;;;8.03;;
75096;SDS011;63684;47.964;11.186;2023-04-03T05:17:48;11.53;;;8.23;;
75096;SDS011;63684;47.964;11.186;2023-04-03T05:20:15;9.97;;;7.77;;
75096;SDS011;63684;47.964;11.186;2023-04-03T05:22:43;8.53;;;7.53;;
75096;SDS011;63684;47.964;11.186;2023-04-03T05:25:09;9.17;;;7.20;;
75096;SDS011;63684;47.964;11.186;2023-04-03T05:27:35;9.50;;;6.70;;
75096;SDS011;63684;47.964;11.186;2023-04-03T05:30:01;7.23;;;6.53;;
75096;SDS011;63684;47.964;11.186;2023-04-03T05:32:28;9.10;;;7.60;;
75096;SDS011;63684;47.964;11.186;2023-04-03T05:35:09;8.47;;;6.87;;
75096;SDS011;63684;47.964;11.186;2023-04-03T05:37:35;7.40;;;6.60;;
75096;SDS011;63684;47.964;11.186;2023-04-03T05:40:01;9.23;;;7.00;;
75096;SDS011;63684;47.964;11.186;2023-04-03T05:42:28;9.00;;;7.60;;
75096;SDS011;63684;47.964;11.186;2023-04-03T05:44:53;8.37;;;6.70;;
75096;SDS011;63684;47.964;11.186;2023-04-03T05:47:18;8.50;;;7.30;;
75096;SDS011;63684;47.964;11.186;2023-04-03T05:49:44;9.53;;;6.63;;
75096;SDS011;63684;47.964;11.186;2023-04-03T05:52:35;7.83;;;6.67;;
75096;SDS011;63684;47.964;11.186;2023-04-03T05:55:02;8.23;;;6.60;;
75096;SDS011;63684;47.964;11.186;2023-04-03T05:57:32;7.40;;;6.60;;
75096;SDS011;63684;47.964;11.186;2023-04-03T05:59:57;9.07;;;6.70;;
75096;SDS011;63684;47.964;11.186;2023-04-03T06:02:24;7.87;;;6.80;;
75096;SDS011;63684;47.964;11.186;2023-04-03T06:04:50;7.97;;;6.33;;
75096;SDS011;63684;47.964;11.186;2023-04-03T06:07:17;8.60;;;6.10;;
75096;SDS011;63684;47.964;11.186;2023-04-03T06:09:44;8.97;;;6.63;;
75096;SDS011;63684;47.964;11.186;2023-04-03T06:12:10;6.77;;;5.43;;
75096;SDS011;63684;47.964;11.186;2023-04-03T06:14:36;8.33;;;6.93;;
75096;SDS011;63684;47.964;11.186;2023-04-03T06:17:02;6.17;;;5.57;;
75096;SDS011;63684;47.964;11.186;2023-04-03T06:19:29;5.67;;;5.10;;
75096;SDS011;63684;47.964;11.186;2023-04-03T06:21:56;6.27;;;5.20;;
75096;SDS011;63684;47.964;11.186;2023-04-03T06:24:22;6.63;;;5.60;;
75096;SDS011;63684;47.964;11.186;2023-04-03T06:26:49;10.97;;;6.30;;
75096;SDS011;63684;47.964;11.186;2023-04-03T06:29:16;6.00;;;5.27;;
75096;SDS011;63684;47.964;11.186;2023-04-03T06:31:42;6.77;;;4.87;;
75096;SDS011;63684;47.964;11.186;2023-04-03T06:34:07;5.83;;;4.60;;
75096;SDS011;63684;47.964;11.186;2023-04-03T06:36:33;5.80;;;5.20;;
75096;SDS011;63684;47.964;11.186;2023-04-03T06:38:59;6.90;;;5.17;;
75096;SDS011;63684;47.964;11.186;2023-04-03T06:41:25;7.40;;;5.13;;
75096;SDS011;63684;47.964;11.186;2023-04-03T06:43:51;4.73;;;4.33;;
75096;SDS011;63684;47.964;11.186;2023-04-03T06:46:18;8.23;;;5.17;;
75096;SDS011;63684;47.964;11.186;2023-04-03T06:48:45;6.90;;;5.27;;
75096;SDS011;63684;47.964;11.186;2023-04-03T06:51:16;6.43;;;4.73;;
75096;SDS011;63684;47.964;11.186;2023-04-03T06:53:49;5.37;;;4.80;;
75096;SDS011;63684;47.964;11.186;2023-04-03T06:56:16;5.23;;;4.27;;
75096;SDS011;63684;47.964;11.186;2023-04-03T06:58:43;6.27;;;4.93;;
75096;SDS011;63684;47.964;11.186;2023-04-03T07:01:12;6.43;;;4.50;;
75096;SDS011;63684;47.964;11.186;2023-04-03T07:03:39;5.63;;;4.00;;
75096;SDS011;63684;47.964;11.186;2023-04-03T07:06:05;6.13;;;4.73;;
75096;SDS011;63684;47.964;11.186;2023-04-03T07:08:32;7.70;;;5.17;;
75096;SDS011;63684;47.964;11.186;2023-04-03T07:10:57;5.33;;;4.13;;
75096;SDS011;63684;47.964;11.186;2023-04-03T07:13:23;6.37;;;3.77;;
75096;SDS011;63684;47.964;11.186;2023-04-03T07:15:49;4.83;;;4.27;;
75096;SDS011;63684;47.964;11.186;2023-04-03T07:18:15;4.40;;;4.00;;
75096;SDS011;63684;47.964;11.186;2023-04-03T07:20:42;4.87;;;4.37;;
75096;SDS011;63684;47.964;11.186;2023-04-03T07:23:07;5.50;;;4.20;;
75096;SDS011;63684;47.964;11.186;2023-04-03T07:25:33;6.40;;;4.50;;
75096;SDS011;63684;47.964;11.186;2023-04-03T07:27:58;6.43;;;5.00;;
75096;SDS011;63684;47.964;11.186;2023-04-03T07:30:24;6.53;;;4.27;;
75096;SDS011;63684;47.964;11.186;2023-04-03T07:32:50;5.93;;;4.30;;
75096;SDS011;63684;47.964;11.186;2023-04-03T07:35:16;7.70;;;4.53;;
75096;SDS011;63684;47.964;11.186;2023-04-03T07:37:42;5.00;;;3.73;;
75096;SDS011;63684;47.964;11.186;2023-04-03T07:40:08;7.60;;;4.30;;
75096;SDS011;63684;47.964;11.186;2023-04-03T07:42:34;4.20;;;3.73;;
75096;SDS011;63684;47.964;11.186;2023-04-03T07:45:00;3.70;;;3.40;;
75096;SDS011;63684;47.964;11.186;2023-04-03T07:47:26;3.83;;;3.43;;
75096;SDS011;63684;47.964;11.186;2023-04-03T07:49:52;3.93;;;3.50;;
75096;SDS011;63684;47.964;11.186;2023-04-03T07:52:17;4.80;;;3.73;;
75096;SDS011;63684;47.964;11.186;2023-04-03T07:54:43;4.20;;;3.80;;
75096;SDS011;63684;47.964;11.186;2023-04-03T07:57:08;4.87;;;3.17;;
75096;SDS011;63684;47.964;11.186;2023-04-03T07:59:34;4.80;;;3.50;;
75096;SDS011;63684;47.964;11.186;2023-04-03T08:01:59;7.20;;;3.50;;
75096;SDS011;63684;47.964;11.186;2023-04-03T08:04:25;7.93;;;3.90;;
75096;SDS011;63684;47.964;11.186;2023-04-03T08:06:51;4.10;;;3.70;;
75096;SDS011;63684;47.964;11.186;2023-04-03T08:09:17;4.10;;;3.70;;
75096;SDS011;63684;47.964;11.186;2023-04-03T08:11:44;5.17;;;3.60;;
75096;SDS011;63684;47.964;11.186;2023-04-03T08:14:10;4.00;;;3.60;;
75096;SDS011;63684;47.964;11.186;2023-04-03T08:16:40;3.17;;;2.63;;
75096;SDS011;63684;47.964;11.186;2023-04-03T08:19:06;3.90;;;3.47;;
75096;SDS011;63684;47.964;11.186;2023-04-03T08:21:32;6.50;;;3.17;;
75096;SDS011;63684;47.964;11.186;2023-04-03T08:23:58;4.80;;;3.63;;
75096;SDS011;63684;47.964;11.186;2023-04-03T08:26:23;3.87;;;3.23;;
75096;SDS011;63684;47.964;11.186;2023-04-03T08:28:49;3.57;;;2.73;;
75096;SDS011;63684;47.964;11.186;2023-04-03T08:31:16;3.63;;;3.33;;
75096;SDS011;63684;47.964;11.186;2023-04-03T08:33:43;4.63;;;3.57;;
75096;SDS011;63684;47.964;11.186;2023-04-03T08:36:30;4.67;;;3.83;;
75096;SDS011;63684;47.964;11.186;2023-04-03T08:38:55;6.07;;;3.87;;
75096;SDS011;63684;47.964;11.186;2023-04-03T08:50:15;6.40;;;2.80;;
75096;SDS011;63684;47.964;11.186;2023-04-03T08:52:49;3.73;;;3.30;;
75096;SDS011;63684;47.964;11.186;2023-04-03T08:55:29;3.63;;;3.30;;
75096;SDS011;63684;47.964;11.186;2023-04-03T09:00:54;3.90;;;2.80;;
75096;SDS011;63684;47.964;11.186;2023-04-03T09:03:23;5.13;;;3.73;;
75096;SDS011;63684;47.964;11.186;2023-04-03T09:19:35;4.00;;;3.20;;
75096;SDS011;63684;47.964;11.186;2023-04-03T09:22:25;4.27;;;3.00;;
75096;SDS011;63684;47.964;11.186;2023-04-03T09:24:57;4.97;;;3.27;;
75096;SDS011;63684;47.964;11.186;2023-04-03T09:27:24;6.13;;;3.87;;
75096;SDS011;63684;47.964;11.186;2023-04-03T09:29:49;5.20;;;3.07;;
75096;SDS011;63684;47.964;11.186;2023-04-03T09:32:21;5.20;;;3.20;;
75096;SDS011;63684;47.964;11.186;2023-04-03T09:34:47;3.83;;;2.83;;
75096;SDS011;63684;47.964;11.186;2023-04-03T09:37:33;4.00;;;2.90;;
75096;SDS011;63684;47.964;11.186;2023-04-03T09:40:27;5.53;;;3.00;;
75096;SDS011;63684;47.964;11.186;2023-04-03T09:42:57;5.47;;;2.77;;
75096;SDS011;63684;47.964;11.186;2023-04-03T09:45:30;3.90;;;3.10;;
75096;SDS011;63684;47.964;11.186;2023-04-03T09:56:03;4.43;;;2.60;;
75096;SDS011;63684;47.964;11.186;2023-04-03T09:58:38;3.97;;;3.13;;
75096;SDS011;63684;47.964;11.186;2023-04-03T10:04:02;3.93;;;2.80;;
75096;SDS011;63684;47.964;11.186;2023-04-03T10:06:51;4.70;;;3.03;;
75096;SDS011;63684;47.964;11.186;2023-04-03T10:09:25;3.20;;;2.90;;
75096;SDS011;63684;47.964;11.186;2023-04-03T10:20:03;5.47;;;3.17;;
75096;SDS011;63684;47.964;11.186;2023-04-03T10:22:44;4.37;;;3.23;;
75096;SDS011;63684;47.964;11.186;2023-04-03T10:25:30;4.50;;;2.97;;
75096;SDS011;63684;47.964;11.186;2023-04-03T10:28:01;3.10;;;2.80;;
75096;SDS011;63684;47.964;11.186;2023-04-03T10:30:38;3.53;;;2.60;;
75096;SDS011;63684;47.964;11.186;2023-04-03T10:43:43;3.47;;;2.63;;
75096;SDS011;63684;47.964;11.186;2023-04-03T10:51:29;2.87;;;2.53;;
75096;SDS011;63684;47.964;11.186;2023-04-03T10:54:20;3.13;;;2.63;;
75096;SDS011;63684;47.964;11.186;2023-04-03T10:57:09;7.83;;;2.67;;
75096;SDS011;63684;47.964;11.186;2023-04-03T11:04:40;3.60;;;2.40;;
75096;SDS011;63684;47.964;11.186;2023-04-03T11:07:14;4.80;;;2.40;;
75096;SDS011;63684;47.964;11.186;2023-04-03T11:09:42;4.03;;;2.40;;
75096;SDS011;63684;47.964;11.186;2023-04-03T11:12:11;4.17;;;2.57;;
75096;SDS011;63684;47.964;11.186;2023-04-03T11:14:40;5.70;;;2.73;;
75096;SDS011;63684;47.964;11.186;2023-04-03T11:17:19;4.63;;;2.90;;
75096;SDS011;63684;47.964;11.186;2023-04-03T11:22:43;6.23;;;3.30;;
75096;SDS011;63684;47.964;11.186;2023-04-03T11:27:41;8.30;;;3.30;;
75096;SDS011;63684;47.964;11.186;2023-04-03T11:30:11;4.73;;;3.13;;
75096;SDS011;63684;47.964;11.186;2023-04-03T11:35:31;5.43;;;3.30;;
75096;SDS011;63684;47.964;11.186;2023-04-03T11:37:57;3.10;;;2.83;;
75096;SDS011;63684;47.964;11.186;2023-04-03T11:40:25;4.30;;;3.37;;
75096;SDS011;63684;47.964;11.186;2023-04-03T11:50:46;5.40;;;3.23;;
75096;SDS011;63684;47.964;11.186;2023-04-03T11:58:13;3.87;;;3.33;;
75096;SDS011;63684;47.964;11.186;2023-04-03T12:05:48;6.57;;;3.40;;
75096;SDS011;63684;47.964;11.186;2023-04-03T12:08:27;3.90;;;3.50;;
75096;SDS011;63684;47.964;11.186;2023-04-03T12:13:38;5.40;;;3.40;;
75096;SDS011;63684;47.964;11.186;2023-04-03T12:19:03;5.07;;;3.17;;
75096;SDS011;63684;47.964;11.186;2023-04-03T12:44:00;3.20;;;2.80;;
75096;SDS011;63684;47.964;11.186;2023-04-03T12:46:28;3.83;;;2.70;;
75096;SDS011;63684;47.964;11.186;2023-04-03T12:49:10;9.40;;;2.53;;
75096;SDS011;63684;47.964;11.186;2023-04-03T12:51:40;5.17;;;3.10;;
75096;SDS011;63684;47.964;11.186;2023-04-03T12:57:08;8.07;;;2.87;;
75096;SDS011;63684;47.964;11.186;2023-04-03T12:59:35;3.63;;;2.17;;
75096;SDS011;63684;47.964;11.186;2023-04-03T13:02:01;4.17;;;2.60;;
75096;SDS011;63684;47.964;11.186;2023-04-03T13:04:28;3.87;;;2.43;;
75096;SDS011;63684;47.964;11.186;2023-04-03T13:06:54;5.80;;;2.50;;
75096;SDS011;63684;47.964;11.186;2023-04-03T13:09:25;5.37;;;2.87;;
75096;SDS011;63684;47.964;11.186;2023-04-03T13:12:11;4.17;;;2.30;;
75096;SDS011;63684;47.964;11.186;2023-04-03T13:14:38;5.30;;;2.83;;
75096;SDS011;63684;47.964;11.186;2023-04-03T13:17:10;3.23;;;2.60;;
75096;SDS011;63684;47.964;11.186;2023-04-03T13:19:38;5.73;;;2.67;;
75096;SDS011;63684;47.964;11.186;2023-04-03T13:22:05;5.57;;;2.63;;
75096;SDS011;63684;47.964;11.186;2023-04-03T13:24:34;7.80;;;2.40;;
75096;SDS011;63684;47.964;11.186;2023-04-03T13:27:01;4.63;;;2.70;;
75096;SDS011;63684;47.964;11.186;2023-04-03T13:29:29;3.70;;;2.53;;
75096;SDS011;63684;47.964;11.186;2023-04-03T13:32:00;4.13;;;2.60;;
75096;SDS011;63684;47.964;11.186;2023-04-03T13:34:47;3.60;;;2.63;;
75096;SDS011;63684;47.964;11.186;2023-04-03T13:37:20;5.13;;;2.33;;
75096;SDS011;63684;47.964;11.186;2023-04-03T13:42:34;6.97;;;2.60;;
75096;SDS011;63684;47.964;11.186;2023-04-03T13:45:16;6.27;;;2.07;;
75096;SDS011;63684;47.964;11.186;2023-04-03T13:47:49;4.23;;;2.50;;
75096;SDS011;63684;47.964;11.186;2023-04-03T13:55:24;5.07;;;2.13;;
75096;SDS011;63684;47.964;11.186;2023-04-03T14:00:35;4.27;;;2.20;;
75096;SDS011;63684;47.964;11.186;2023-04-03T14:05:55;2.40;;;1.83;;
75096;SDS011;63684;47.964;11.186;2023-04-03T14:08:20;2.90;;;1.90;;
75096;SDS011;63684;47.964;11.186;2023-04-03T14:10:46;8.97;;;2.17;;
75096;SDS011;63684;47.964;11.186;2023-04-03T14:13:14;2.70;;;1.87;;
75096;SDS011;63684;47.964;11.186;2023-04-03T14:15:41;2.83;;;2.07;;
75096;SDS011;63684;47.964;11.186;2023-04-03T14:18:10;2.83;;;2.00;;
75096;SDS011;63684;47.964;11.186;2023-04-03T14:20:40;2.60;;;1.90;;
75096;SDS011;63684;47.964;11.186;2023-04-03T14:23:06;4.53;;;2.40;;
75096;SDS011;63684;47.964;11.186;2023-04-03T14:25:32;2.40;;;2.20;;
75096;SDS011;63684;47.964;11.186;2023-04-03T14:27:57;3.80;;;2.07;;
75096;SDS011;63684;47.964;11.186;2023-04-03T14:30:32;6.07;;;2.70;;
75096;SDS011;63684;47.964;11.186;2023-04-03T14:32:58;5.33;;;1.97;;
75096;SDS011;63684;47.964;11.186;2023-04-03T14:35:25;3.47;;;1.90;;
75096;SDS011;63684;47.964;11.186;2023-04-03T14:37:51;4.37;;;2.10;;
75096;SDS011;63684;47.964;11.186;2023-04-03T14:40:19;4.40;;;1.80;;
75096;SDS011;63684;47.964;11.186;2023-04-03T14:42:47;6.20;;;2.33;;
75096;SDS011;63684;47.964;11.186;2023-04-03T14:45:14;3.07;;;2.10;;
75096;SDS011;63684;47.964;11.186;2023-04-03T14:47:42;5.17;;;2.10;;
75096;SDS011;63684;47.964;11.186;2023-04-03T14:50:12;2.30;;;1.90;;
75096;SDS011;63684;47.964;11.186;2023-04-03T14:52:41;3.00;;;1.70;;
75096;SDS011;63684;47.964;11.186;2023-04-03T14:55:07;3.73;;;1.83;;
75096;SDS011;63684;47.964;11.186;2023-04-03T14:57:33;1.80;;;1.60;;
75096;SDS011;63684;47.964;11.186;2023-04-03T14:59:59;1.57;;;1.47;;
75096;SDS011;63684;47.964;11.186;2023-04-03T15:04:55;2.47;;;1.50;;
75096;SDS011;63684;47.964;11.186;2023-04-03T15:07:22;4.53;;;1.70;;
75096;SDS011;63684;47.964;11.186;2023-04-03T15:09:49;2.73;;;1.67;;
75096;SDS011;63684;47.964;11.186;2023-04-03T15:12:15;5.83;;;1.80;;
75096;SDS011;63684;47.964;11.186;2023-04-03T15:14:40;2.53;;;1.60;;
75096;SDS011;63684;47.964;11.186;2023-04-03T15:17:06;4.37;;;1.60;;
75096;SDS011;63684;47.964;11.186;2023-04-03T15:19:35;2.07;;;1.50;;
75096;SDS011;63684;47.964;11.186;2023-04-03T15:22:02;2.03;;;1.50;;
75096;SDS011;63684;47.964;11.186;2023-04-03T15:24:27;3.50;;;1.60;;
75096;SDS011;63684;47.964;11.186;2023-04-03T15:26:53;4.93;;;1.90;;
75096;SDS011;63684;47.964;11.186;2023-04-03T15:29:18;5.03;;;1.80;;
75096;SDS011;63684;47.964;11.186;2023-04-03T15:31:44;4.87;;;1.77;;
75096;SDS011;63684;47.964;11.186;2023-04-03T15:34:09;2.63;;;1.70;;
75096;SDS011;63684;47.964;11.186;2023-04-03T15:36:35;3.83;;;2.10;;
75096;SDS011;63684;47.964;11.186;2023-04-03T15:39:00;3.07;;;1.63;;
75096;SDS011;63684;47.964;11.186;2023-04-03T15:41:26;3.70;;;1.93;;
75096;SDS011;63684;47.964;11.186;2023-04-03T15:43:51;6.00;;;1.80;;
75096;SDS011;63684;47.964;11.186;2023-04-03T15:46:17;3.80;;;1.90;;
75096;SDS011;63684;47.964;11.186;2023-04-03T15:48:42;2.40;;;1.50;;
75096;SDS011;63684;47.964;11.186;2023-04-03T15:51:08;4.33;;;1.70;;
75096;SDS011;63684;47.964;11.186;2023-04-03T15:53:34;6.53;;;1.77;;
75096;SDS011;63684;47.964;11.186;2023-04-03T15:55:59;2.07;;;1.60;;
75096;SDS011;63684;47.964;11.186;2023-04-03T15:58:25;2.30;;;1.53;;
75096;SDS011;63684;47.964;11.186;2023-04-03T16:00:50;1.90;;;1.40;;
75096;SDS011;63684;47.964;11.186;2023-04-03T16:03:17;4.13;;;1.60;;
75096;SDS011;63684;47.964;11.186;2023-04-03T16:05:43;4.20;;;1.43;;
75096;SDS011;63684;47.964;11.186;2023-04-03T16:08:09;3.57;;;1.43;;
75096;SDS011;63684;47.964;11.186;2023-04-03T16:10:35;1.80;;;1.37;;
75096;SDS011;63684;47.964;11.186;2023-04-03T16:13:02;2.33;;;1.27;;
75096;SDS011;63684;47.964;11.186;2023-04-03T16:15:27;3.43;;;1.50;;
75096;SDS011;63684;47.964;11.186;2023-04-03T16:17:54;3.27;;;1.50;;
75096;SDS011;63684;47.964;11.186;2023-04-03T16:20:19;4.10;;;1.60;;
75096;SDS011;63684;47.964;11.186;2023-04-03T16:22:46;2.77;;;1.60;;
75096;SDS011;63684;47.964;11.186;2023-04-03T16:25:12;3.00;;;1.40;;
75096;SDS011;63684;47.964;11.186;2023-04-03T16:27:37;3.10;;;1.57;;
75096;SDS011;63684;47.964;11.186;2023-04-03T16:30:03;3.53;;;1.63;;
75096;SDS011;63684;47.964;11.186;2023-04-03T16:32:30;1.73;;;1.30;;
75096;SDS011;63684;47.964;11.186;2023-04-03T16:34:56;2.30;;;1.40;;
75096;SDS011;63684;47.964;11.186;2023-04-03T16:37:22;2.53;;;1.47;;
75096;SDS011;63684;47.964;11.186;2023-04-03T16:39:48;6.00;;;1.30;;
75096;SDS011;63684;47.964;11.186;2023-04-03T16:42:14;1.83;;;1.40;;
75096;SDS011;63684;47.964;11.186;2023-04-03T16:44:39;4.47;;;1.47;;
75096;SDS011;63684;47.964;11.186;2023-04-03T16:47:05;3.33;;;1.20;;
75096;SDS011;63684;47.964;11.186;2023-04-03T16:49:32;2.33;;;1.30;;
75096;SDS011;63684;47.964;11.186;2023-04-03T16:52:02;1.47;;;1.00;;
75096;SDS011;63684;47.964;11.186;2023-04-03T16:54:28;2.37;;;1.00;;
75096;SDS011;63684;47.964;11.186;2023-04-03T16:56:54;3.07;;;1.40;;
75096;SDS011;63684;47.964;11.186;2023-04-03T16:59:20;2.17;;;1.43;;
75096;SDS011;63684;47.964;11.186;2023-04-03T17:01:45;2.83;;;1.23;;
75096;SDS011;63684;47.964;11.186;2023-04-03T17:04:11;1.60;;;1.27;;
75096;SDS011;63684;47.964;11.186;2023-04-03T17:06:38;2.23;;;1.20;;